Latest Weather Observations for Ballera

IDQ60801

Issued at 3:32 pm EST Monday 20 November 2017 (issued every 30 minutes, with the page automatically refreshed every 10 minutes)

About weather observations | Map of weather stations | Latest weather observations for QLD | Other Formats
Station Details ID: 045009 Name: BALLERA GAS FIELD Lat: -27.40 Lon: 141.81 Height: 114.5 m
Data from the previous 72 hours. | See also: Recent months at Ballera
Date/Time
EST
Temp
°C
App
Temp
°C
Dew
Point
°C
Rel
Hum
%
Delta-T
°C
Wind Press
QNH
hPa
Press
MSL
hPa
Rain since
9am
mm
Dir  Spd
km/h
Gust
km/h
Spd
kts
Gust
kts
20/03:30pm 33.1 27.7 7.9 21 14.1 E 26 39 14 21 1009.6 1008.9 0.0
20/03:00pm 33.3 28.1 8.7 22 13.9 E 26 39 14 21 1009.8 1009.1 0.0
20/02:30pm 33.4 28.6 8.8 22 13.9 ENE 24 39 13 21 1010.2 1009.5 0.0
20/02:00pm 34.0 28.7 8.6 21 14.4 ENE 26 41 14 22 1010.3 1009.6 0.0
20/01:30pm 33.5 28.9 8.2 21 14.2 ENE 22 35 12 19 1010.8 1010.1 0.0
20/01:00pm 33.3 29.2 8.7 22 13.9 NE 20 32 11 17 1011.1 1010.4 0.0
20/12:30pm 33.2 29.3 9.3 23 13.6 NE 20 33 11 18 1011.9 1011.1 0.0
20/12:00pm 31.7 27.9 9.8 26 12.5 NE 20 32 11 17 1012.3 1011.6 0.0
20/11:30am 32.5 28.7 11.1 27 12.5 NE 22 33 12 18 1012.7 1012.0 0.0
20/11:00am 32.1 28.5 11.8 29 12.0 ENE 22 39 12 21 1013.2 1012.5 0.0
20/10:30am 30.6 26.5 11.5 30 11.1 ENE 24 37 13 20 1013.5 1012.8 0.0
20/10:00am 29.8 25.3 11.3 32 10.7 NE 26 35 14 19 1013.8 1013.1 0.0
20/09:30am 28.6 23.3 11.2 34 10.0 ENE 30 41 16 22 1013.7 1013.0 0.0
20/09:00am 28.0 22.4 11.5 35 9.5 NE 32 41 17 22 1013.8 1013.1 0.0
20/08:30am 27.4 22.0 12.2 39 8.8 NE 32 41 17 22 1014.0 1013.3 0.0
20/08:00am 27.1 21.7 12.7 41 8.4 ENE 33 41 18 22 1013.8 1013.1 0.0
20/07:30am 26.2 21.4 13.0 44 7.7 ENE 30 39 16 21 1013.6 1012.9 0.0
20/07:00am 25.2 20.5 13.1 47 7.1 E 30 37 16 20 1013.0 1012.3 0.0
20/06:30am 24.3 20.5 12.3 47 6.9 E 24 32 13 17 1012.5 1011.8 0.0
20/06:00am 24.0 20.2 12.3 48 6.7 E 24 30 13 16 1012.2 1011.5 0.0
20/05:30am 23.7 20.3 12.4 49 6.5 E 22 26 12 14 1011.7 1010.9 0.0
20/05:00am 23.8 20.8 12.1 48 6.7 E 19 22 10 12 1011.3 1010.6 0.0
20/04:30am 24.1 20.9 11.8 46 7.0 E 20 24 11 13 1011.3 1010.6 0.0
20/04:00am 24.5 21.3 11.8 45 7.2 E 20 24 11 13 1011.1 1010.4 0.0
20/03:30am 24.7 23.0 11.3 43 7.6 E 11 15 6 8 1011.4 1010.7 0.0
20/03:00am 25.2 22.4 11.4 42 7.8 ENE 17 20 9 11 1010.9 1010.2 0.0
20/02:30am 25.7 21.9 11.1 40 8.3 ENE 22 30 12 16 1010.6 1009.9 0.0
20/02:00am 26.0 21.7 10.6 38 8.7 ENE 24 30 13 16 1010.2 1009.5 0.0
20/01:30am 26.6 21.4 10.3 36 9.2 ENE 28 37 15 20 1010.3 1009.6 0.0
20/01:00am 27.1 21.0 9.9 34 9.6 ENE 32 37 17 20 1010.2 1009.5 0.0
20/12:30am 27.5 21.0 10.2 34 9.7 ENE 35 44 19 24 1010.4 1009.7 0.0
20/12:00am 27.9 19.6 10.1 33 10.0 ENE 44 59 24 32 1010.6 1009.9 0.0
 
Date/Time
EST
Temp
°C
App
Temp
°C
Dew
Point
°C
Rel
Hum
%
Delta-T
°C
Wind Press
QNH
hPa
Press
MSL
hPa
Rain since
9am
mm
Dir  Spd
km/h
Gust
km/h
Spd
kts
Gust
kts
19/11:30pm 28.2 21.6 9.9 32 10.3 ENE 35 54 19 29 1010.8 1010.1 0.0
19/11:29pm 28.3 21.7 10.0 32 10.3 ENE 35 54 19 29 1010.8 1010.1 0.0
19/11:00pm 28.6 22.1 10.3 32 10.4 ENE 35 43 19 23 1010.8 1010.1 0.0
19/10:30pm 28.9 21.4 9.6 30 10.8 E 39 50 21 27 1010.7 1010.0 0.0
19/10:00pm 29.5 22.7 10.6 31 10.8 ENE 37 50 20 27 1010.6 1009.9 0.0
19/09:30pm 30.0 22.5 11.0 31 11.0 E 41 59 22 32 1010.1 1009.4 0.0
19/09:00pm 31.3 23.6 10.1 27 12.2 E 41 61 22 33 1009.4 1008.7 0.0
19/08:56pm 31.9 24.6 8.8 24 13.0 E 37 54 20 29 1009.4 1008.7 0.0
19/08:30pm 32.2 27.0 5.7 19 14.2 SE 22 33 12 18 1009.1 1008.4 0.0
19/08:00pm 32.6 28.1 4.4 17 14.8 SE 17 20 9 11 1008.8 1008.1 0.0
19/07:30pm 33.1 28.5 3.9 16 15.3 ESE 17 22 9 12 1008.4 1007.7 0.0
19/07:00pm 33.6 29.3 3.4 15 15.7 ESE 15 19 8 10 1008.0 1007.3 0.0
19/06:30pm 34.1 29.3 2.8 14 16.2 ESE 17 24 9 13 1007.7 1007.0 0.0
19/06:00pm 34.6 29.9 3.2 14 16.4 SE 17 26 9 14 1007.5 1006.8 0.0
19/05:30pm 35.4 31.8 2.8 13 17.0 SE 11 20 6 11 1007.1 1006.4 0.0
19/05:00pm 35.0 30.2 2.5 13 16.8 E 17 24 9 13 1007.0 1006.3 0.0
19/04:30pm 35.0 31.3 2.5 13 16.8 ENE 11 17 6 9 1007.0 1006.3 0.0
19/04:00pm 34.8 30.9 3.4 14 16.5 S 13 22 7 12 1007.2 1006.5 0.0
19/03:30pm 35.5 32.5 3.9 14 16.7 NNE 9 17 5 9 1007.5 1006.8 0.0
19/03:00pm 35.3 31.3 2.7 13 17.0 SE 13 22 7 12 1007.7 1007.0 0.0
19/02:30pm 35.5 30.8 2.9 13 17.0 ESE 17 24 9 13 1007.8 1007.1 0.0
19/02:00pm 35.2 30.4 2.6 13 16.9 SSE 17 24 9 13 1008.3 1007.6 0.0
19/01:30pm 34.9 29.3 1.3 12 17.0 ESE 20 41 11 22 1008.8 1008.1 0.0
19/01:00pm 35.0 31.5 1.4 12 17.1 NNE 9 17 5 9 1009.1 1008.4 0.0
19/12:30pm 33.5 30.2 2.4 14 15.9 W 9 19 5 10 1009.7 1009.0 0.0
19/12:00pm 33.3 30.5 3.2 15 15.6 S 7 26 4 14 1009.9 1009.2 0.0
19/11:30am 33.3 28.9 5.0 17 15.1 ESE 17 26 9 14 1010.1 1009.4 0.0
19/11:00am 32.9 30.1 8.4 22 13.8 E 13 24 7 13 1010.2 1009.5 0.0
19/10:30am 32.0 29.5 11.2 28 12.1 NE 15 22 8 12 1010.3 1009.6 0.0
19/10:00am 30.6 28.2 11.5 30 11.2 E 15 20 8 11 1010.5 1009.8 0.0
19/09:30am 29.4 27.3 12.3 34 10.0 ENE 15 26 8 14 1010.4 1009.7 0.0
19/09:00am 28.9 26.0 12.8 37 9.5 E 20 28 11 15 1010.5 1009.8 0.0
19/08:30am 28.1 24.4 12.8 38 9.0 E 24 32 13 17 1010.5 1009.8 0.0
19/08:00am 27.1 22.9 11.2 37 9.1 ESE 24 32 13 17 1010.3 1009.6 0.0
19/07:30am 25.9 22.5 11.3 40 8.3 ESE 20 24 11 13 1009.8 1009.1 0.0
19/07:00am 24.4 20.2 8.4 36 8.6 ESE 20 24 11 13 1009.6 1008.9 0.0
19/06:30am 22.9 18.9 4.9 31 9.0 ESE 15 17 8 9 1009.0 1008.3 0.0
19/06:00am 21.4 17.4 3.1 30 8.8 SE 13 15 7 8 1008.8 1008.1 0.0
19/05:30am 20.8 16.7 2.1 29 8.7 SE 13 17 7 9 1008.6 1007.9 0.0
19/05:00am 20.9 16.2 1.2 27 9.0 SE 15 17 8 9 1008.5 1007.8 0.0
19/04:30am 21.2 16.4 -0.1 24 9.5 SE 15 17 8 9 1008.3 1007.6 0.0
19/04:00am 22.0 16.8 -0.1 23 10.0 SSE 17 20 9 11 1008.2 1007.5 0.0
19/03:30am 22.6 16.7 -0.8 21 10.5 SSE 20 26 11 14 1008.0 1007.3 0.0
19/03:00am 23.6 17.0 -0.6 20 11.0 SSE 24 30 13 16 1008.1 1007.4 0.0
19/02:30am 24.0 17.8 -0.3 20 11.1 S 22 28 12 15 1007.9 1007.2 0.0
19/02:00am 24.4 18.5 -0.7 19 11.4 S 20 26 11 14 1007.8 1007.1 0.0
19/01:30am 24.9 19.1 -0.3 19 11.6 S 20 24 11 13 1008.1 1007.4 0.0
19/01:00am 25.0 18.7 -0.9 18 11.8 S 22 26 12 14 1008.5 1007.8 0.0
19/12:30am 25.4 19.4 -1.4 17 12.1 S 20 24 11 13 1008.9 1008.2 0.0
19/12:00am 25.7 19.6 -2.0 16 12.4 S 20 24 11 13 1009.1 1008.4 0.0
 
Date/Time
EST
Temp
°C
App
Temp
°C
Dew
Point
°C
Rel
Hum
%
Delta-T
°C
Wind Press
QNH
hPa
Press
MSL
hPa
Rain since
9am
mm
Dir  Spd
km/h
Gust
km/h
Spd
kts
Gust
kts
18/11:30pm 26.0 19.9 -2.6 15 12.7 SSW 20 26 11 14 1009.3 1008.6 0.0
18/11:00pm 26.6 20.0 -3.1 14 13.2 SSW 22 26 12 14 1009.5 1008.8 0.0
18/10:30pm 27.0 20.0 -3.7 13 13.5 SSW 24 28 13 15 1009.4 1008.7 0.0
18/10:00pm 27.5 20.8 -4.4 12 13.9 SSW 22 26 12 14 1009.4 1008.7 0.0
18/09:30pm 27.9 21.5 -5.2 11 14.3 SSW 20 24 11 13 1009.1 1008.4 0.0
18/09:00pm 28.6 22.1 -6.0 10 14.8 SSW 20 24 11 13 1008.8 1008.1 0.0
18/08:30pm 29.5 22.9 -6.7 9 15.4 SSW 20 24 11 13 1008.5 1007.8 0.0
18/08:00pm 30.0 23.7 -6.3 9 15.6 SSW 19 20 10 11 1008.2 1007.5 0.0
18/07:30pm 30.8 24.2 -7.2 8 16.2 SSW 20 24 11 13 1008.1 1007.4 0.0
18/07:00pm 32.0 25.3 -8.1 7 17.1 SSW 20 26 11 14 1007.8 1007.1 0.0
18/06:30pm 33.2 25.4 -7.2 7 17.6 SW 26 32 14 17 1007.6 1006.9 0.0
18/06:00pm 34.0 28.0 -6.6 7 18.0 SW 17 24 9 13 1007.1 1006.4 0.0
18/05:30pm 34.3 27.4 -6.4 7 18.1 SW 22 35 12 19 1007.0 1006.3 0.0
18/05:00pm 34.6 28.1 -6.2 7 18.3 SSW 20 32 11 17 1007.0 1006.3 0.0
18/04:30pm 35.0 28.1 -5.9 7 18.4 SSW 22 39 12 21 1007.3 1006.6 0.0
18/04:00pm 35.3 28.4 -5.7 7 18.6 SW 22 35 12 19 1007.4 1006.7 0.0
18/03:30pm 34.7 28.4 -6.1 7 18.3 SW 19 28 10 15 1007.6 1006.9 0.0
18/03:00pm 34.7 28.4 -4.4 8 18.1 SSW 20 33 11 18 1008.0 1007.3 0.0
18/02:30pm 35.5 30.6 -3.8 8 18.4 S 13 30 7 16 1008.3 1007.6 0.0
18/02:00pm 34.6 27.5 -4.4 8 18.0 WSW 24 35 13 19 1008.7 1008.0 0.0
18/01:30pm 33.9 27.5 -4.9 8 17.6 WSW 20 32 11 17 1009.2 1008.5 0.0
18/01:00pm 33.5 27.8 -3.7 9 17.2 WSW 17 26 9 14 1009.7 1009.0 0.0
18/12:30pm 33.0 28.0 -4.0 9 17.0 SW 13 20 7 11 1010.1 1009.4 0.0
18/12:00pm 32.4 27.5 -3.1 10 16.5 S 13 22 7 12 1010.6 1009.9 0.0
18/11:30am 31.5 26.6 -3.8 10 16.0 W 13 22 7 12 1011.1 1010.4 0.0
18/11:00am 30.8 25.8 -4.3 10 15.7 WSW 13 22 7 12 1011.5 1010.8 0.0
18/10:30am 30.6 26.5 -3.2 11 15.4 NNW 9 15 5 8 1011.5 1010.8 0.0
18/10:00am 30.4 26.6 -1.1 13 14.9 S 9 15 5 8 1011.5 1010.8 0.0
18/09:30am 29.2 25.9 -0.1 15 14.0 SSE 7 13 4 7 1011.5 1010.8 0.0
18/09:00am 28.4 25.1 0.2 16 13.4 SSE 7 13 4 7 1011.7 1010.9 0.0
18/08:30am 27.0 23.1 1.4 19 12.3 SSE 11 17 6 9 1011.5 1010.8 0.0
18/08:00am 25.8 20.9 1.8 21 11.6 S 17 20 9 11 1011.4 1010.7 0.0
18/07:30am 24.8 19.9 1.7 22 11.0 S 17 20 9 11 1011.3 1010.6 0.0
18/07:00am 22.9 18.6 0.7 23 10.2 S 13 19 7 10 1011.3 1010.6 0.0
18/06:30am 20.9 16.6 0.7 26 9.2 WSW 13 17 7 9 1011.1 1010.4 0.0
18/06:00am 21.5 16.0 0.7 25 9.5 S 19 24 10 13 1010.6 1009.9 0.0
18/05:30am 20.9 15.2 0.7 26 9.2 S 20 24 11 13 1010.4 1009.7 0.0
18/05:00am 21.1 15.4 0.3 25 9.4 SSE 20 26 11 14 1010.2 1009.5 0.0
18/04:30am 21.5 15.8 0.7 25 9.5 S 20 26 11 14 1010.1 1009.4 0.0
18/04:00am 21.5 15.7 0.1 24 9.7 S 20 24 11 13 1010.1 1009.4 0.0
18/03:30am 21.7 15.6 0.3 24 9.7 S 22 26 12 14 1010.1 1009.4 0.0
18/03:00am 22.0 15.8 -0.1 23 10.0 S 22 24 12 13 1010.3 1009.6 0.0
18/02:30am 22.7 16.1 -0.1 22 10.3 SSW 24 32 13 17 1010.4 1009.7 0.0
18/02:00am 22.9 16.3 -0.6 21 10.6 SSW 24 28 13 15 1010.6 1009.9 0.0
18/01:30am 23.4 16.3 -1.5 19 11.1 SSW 26 30 14 16 1010.8 1010.1 0.0
18/01:00am 23.5 16.3 -2.2 18 11.3 SSW 26 30 14 16 1011.0 1010.3 0.0
18/12:30am 23.9 16.7 -1.8 18 11.4 SSW 26 32 14 17 1011.1 1010.4 0.0
18/12:00am 24.2 16.9 -3.2 16 11.9 SSW 26 30 14 16 1011.4 1010.7 0.0
 
Date/Time
EST
Temp
°C
App
Temp
°C
Dew
Point
°C
Rel
Hum
%
Delta-T
°C
Wind Press
QNH
hPa
Press
MSL
hPa
Rain since
9am
mm
Dir  Spd
km/h
Gust
km/h
Spd
kts
Gust
kts
17/11:30pm 24.4 17.6 -4.8 14 12.3 SSW 22 26 12 14 1011.4 1010.7 0.0
17/11:00pm 24.1 17.9 -5.0 14 12.2 SSW 19 22 10 12 1011.3 1010.6 0.0
17/10:30pm 23.7 17.7 -6.3 13 12.2 SW 17 17 9 9 1011.4 1010.7 0.0
17/10:00pm 25.2 18.9 -6.2 12 13.0 SW 19 22 10 12 1011.1 1010.4 0.0
17/09:30pm 24.9 19.3 -6.4 12 12.8 SW 15 17 8 9 1011.0 1010.3 0.0
17/09:00pm 26.0 20.0 -6.7 11 13.5 SW 17 19 9 10 1010.8 1010.1 0.0
17/08:30pm 27.3 21.2 -8.3 9 14.4 WSW 17 19 9 10 1010.4 1009.7 0.0
17/08:00pm 28.4 22.3 -7.5 9 14.9 WSW 17 19 9 10 1010.0 1009.3 0.0
17/07:30pm 29.6 22.5 -8.1 8 15.7 WSW 22 30 12 16 1009.7 1009.0 0.0
17/07:00pm 30.6 24.1 -5.8 9 15.9 WSW 20 28 11 15 1009.3 1008.6 0.0
17/06:30pm 31.5 24.3 -5.2 9 16.3 W 24 30 13 16 1009.0 1008.3 0.0
17/06:00pm 32.3 25.2 -4.6 9 16.7 SW 24 32 13 17 1008.7 1008.0 0.0
17/05:30pm 32.7 26.4 -4.3 9 16.8 W 20 33 11 18 1008.4 1007.7 0.0
17/05:00pm 32.8 26.7 -4.2 9 16.9 SW 19 28 10 15 1008.2 1007.5 0.0
17/04:30pm 33.9 26.7 -4.9 8 17.6 WSW 24 33 13 18 1008.4 1007.7 0.0
17/04:00pm 33.0 27.4 -2.6 10 16.7 WNW 17 32 9 17 1008.5 1007.8 0.0

Other Formats:

Comma delimited format used in spreadsheet applications
http://www.bom.gov.au/fwo/IDQ60801/IDQ60801.95487.axf

JavaScript Object Notation format (JSON) in row-major order
http://www.bom.gov.au/fwo/IDQ60801/IDQ60801.95487.json